sensor_id;sensor_type;location;lat;lon;timestamp;temperature;humidity
2957;DHT22;1488;51.548;7.222;2023-09-18T00:00:54;25.10;90.50
2957;DHT22;1488;51.548;7.222;2023-09-18T00:03:22;25.10;90.50
2957;DHT22;1488;51.548;7.222;2023-09-18T00:05:50;25.10;90.50
2957;DHT22;1488;51.548;7.222;2023-09-18T00:08:19;25.10;90.50
2957;DHT22;1488;51.548;7.222;2023-09-18T00:10:47;25.10;90.50
2957;DHT22;1488;51.548;7.222;2023-09-18T00:13:15;25.10;90.50
2957;DHT22;1488;51.548;7.222;2023-09-18T00:15:42;25.10;90.50
2957;DHT22;1488;51.548;7.222;2023-09-18T00:18:10;25.10;90.50
2957;DHT22;1488;51.548;7.222;2023-09-18T00:20:37;25.00;90.40
2957;DHT22;1488;51.548;7.222;2023-09-18T00:23:04;25.00;90.50
2957;DHT22;1488;51.548;7.222;2023-09-18T00:25:32;25.00;90.40
2957;DHT22;1488;51.548;7.222;2023-09-18T00:27:59;25.10;90.50
2957;DHT22;1488;51.548;7.222;2023-09-18T00:30:26;25.10;90.50
2957;DHT22;1488;51.548;7.222;2023-09-18T00:32:52;25.10;90.50
2957;DHT22;1488;51.548;7.222;2023-09-18T00:35:19;25.00;90.40
2957;DHT22;1488;51.548;7.222;2023-09-18T00:37:47;25.10;90.50
2957;DHT22;1488;51.548;7.222;2023-09-18T00:40:14;25.00;90.40
2957;DHT22;1488;51.548;7.222;2023-09-18T00:42:43;25.00;90.40
2957;DHT22;1488;51.548;7.222;2023-09-18T00:45:10;25.00;90.40
2957;DHT22;1488;51.548;7.222;2023-09-18T00:47:36;25.00;90.40
2957;DHT22;1488;51.548;7.222;2023-09-18T00:50:05;25.00;90.40
2957;DHT22;1488;51.548;7.222;2023-09-18T00:52:33;25.00;90.40
2957;DHT22;1488;51.548;7.222;2023-09-18T00:55:00;25.00;90.40
2957;DHT22;1488;51.548;7.222;2023-09-18T00:57:27;25.00;90.40
2957;DHT22;1488;51.548;7.222;2023-09-18T00:59:56;25.00;90.40
2957;DHT22;1488;51.548;7.222;2023-09-18T01:02:23;25.00;90.40
2957;DHT22;1488;51.548;7.222;2023-09-18T01:04:50;25.00;90.50
2957;DHT22;1488;51.548;7.222;2023-09-18T01:07:17;25.00;90.40
2957;DHT22;1488;51.548;7.222;2023-09-18T01:09:44;25.00;90.50
2957;DHT22;1488;51.548;7.222;2023-09-18T01:12:16;25.00;90.50
2957;DHT22;1488;51.548;7.222;2023-09-18T01:14:50;25.00;90.40
2957;DHT22;1488;51.548;7.222;2023-09-18T01:17:24;25.00;90.50
2957;DHT22;1488;51.548;7.222;2023-09-18T01:19:52;25.00;90.50
2957;DHT22;1488;51.548;7.222;2023-09-18T01:22:19;25.00;90.50
2957;DHT22;1488;51.548;7.222;2023-09-18T01:24:48;25.00;90.50
2957;DHT22;1488;51.548;7.222;2023-09-18T01:27:16;25.00;90.50
2957;DHT22;1488;51.548;7.222;2023-09-18T01:29:44;25.00;90.50
2957;DHT22;1488;51.548;7.222;2023-09-18T01:32:11;25.00;90.50
2957;DHT22;1488;51.548;7.222;2023-09-18T01:34:41;25.00;90.40
2957;DHT22;1488;51.548;7.222;2023-09-18T01:37:09;25.00;90.50
2957;DHT22;1488;51.548;7.222;2023-09-18T01:39:39;25.00;90.50
2957;DHT22;1488;51.548;7.222;2023-09-18T01:42:07;25.00;90.50
2957;DHT22;1488;51.548;7.222;2023-09-18T01:44:36;25.00;90.50
2957;DHT22;1488;51.548;7.222;2023-09-18T01:47:06;25.00;90.50
2957;DHT22;1488;51.548;7.222;2023-09-18T01:49:34;25.00;90.50
2957;DHT22;1488;51.548;7.222;2023-09-18T01:52:03;25.00;90.50
2957;DHT22;1488;51.548;7.222;2023-09-18T01:54:30;25.00;90.50
2957;DHT22;1488;51.548;7.222;2023-09-18T01:56:57;25.00;90.50
2957;DHT22;1488;51.548;7.222;2023-09-18T01:59:26;25.00;90.50
2957;DHT22;1488;51.548;7.222;2023-09-18T02:01:53;25.00;90.50
2957;DHT22;1488;51.548;7.222;2023-09-18T02:04:21;25.00;90.50
2957;DHT22;1488;51.548;7.222;2023-09-18T02:06:50;25.00;90.50
2957;DHT22;1488;51.548;7.222;2023-09-18T02:09:17;25.00;90.50
2957;DHT22;1488;51.548;7.222;2023-09-18T02:11:46;25.00;90.50
2957;DHT22;1488;51.548;7.222;2023-09-18T02:14:13;25.00;90.50
2957;DHT22;1488;51.548;7.222;2023-09-18T02:16:43;25.00;90.80
2957;DHT22;1488;51.548;7.222;2023-09-18T02:19:11;25.00;90.50
2957;DHT22;1488;51.548;7.222;2023-09-18T02:21:38;25.00;90.50
2957;DHT22;1488;51.548;7.222;2023-09-18T02:24:06;25.00;90.50
2957;DHT22;1488;51.548;7.222;2023-09-18T02:26:33;25.00;90.90
2957;DHT22;1488;51.548;7.222;2023-09-18T02:29:03;25.00;90.50
2957;DHT22;1488;51.548;7.222;2023-09-18T02:31:30;25.00;90.50
2957;DHT22;1488;51.548;7.222;2023-09-18T02:33:58;25.00;90.50
2957;DHT22;1488;51.548;7.222;2023-09-18T02:36:25;25.00;90.50
2957;DHT22;1488;51.548;7.222;2023-09-18T02:38:52;25.00;90.50
2957;DHT22;1488;51.548;7.222;2023-09-18T02:41:19;25.00;90.50
2957;DHT22;1488;51.548;7.222;2023-09-18T02:43:46;25.00;90.50
2957;DHT22;1488;51.548;7.222;2023-09-18T02:46:12;25.00;90.50
2957;DHT22;1488;51.548;7.222;2023-09-18T02:48:39;25.00;90.50
2957;DHT22;1488;51.548;7.222;2023-09-18T02:51:07;25.00;90.50
2957;DHT22;1488;51.548;7.222;2023-09-18T02:53:34;25.00;90.50
2957;DHT22;1488;51.548;7.222;2023-09-18T02:56:01;25.00;90.50
2957;DHT22;1488;51.548;7.222;2023-09-18T02:58:28;25.00;90.50
2957;DHT22;1488;51.548;7.222;2023-09-18T03:00:57;25.00;90.50
2957;DHT22;1488;51.548;7.222;2023-09-18T03:03:25;25.00;90.50
2957;DHT22;1488;51.548;7.222;2023-09-18T03:05:52;25.00;90.50
2957;DHT22;1488;51.548;7.222;2023-09-18T03:08:20;25.00;90.50
2957;DHT22;1488;51.548;7.222;2023-09-18T03:10:47;25.00;90.50
2957;DHT22;1488;51.548;7.222;2023-09-18T03:13:14;25.00;90.50
2957;DHT22;1488;51.548;7.222;2023-09-18T03:15:44;25.00;90.50
2957;DHT22;1488;51.548;7.222;2023-09-18T03:18:12;25.00;90.60
2957;DHT22;1488;51.548;7.222;2023-09-18T03:20:39;25.00;90.50
2957;DHT22;1488;51.548;7.222;2023-09-18T03:23:05;25.00;90.60
2957;DHT22;1488;51.548;7.222;2023-09-18T03:25:34;25.00;90.60
2957;DHT22;1488;51.548;7.222;2023-09-18T03:28:01;25.00;90.60
2957;DHT22;1488;51.548;7.222;2023-09-18T03:30:28;25.00;90.60
2957;DHT22;1488;51.548;7.222;2023-09-18T03:32:55;25.00;90.50
2957;DHT22;1488;51.548;7.222;2023-09-18T03:35:22;25.00;90.50
2957;DHT22;1488;51.548;7.222;2023-09-18T03:37:50;25.00;90.50
2957;DHT22;1488;51.548;7.222;2023-09-18T03:40:18;25.00;90.50
2957;DHT22;1488;51.548;7.222;2023-09-18T03:42:47;25.00;90.50
2957;DHT22;1488;51.548;7.222;2023-09-18T03:45:14;25.00;90.50
2957;DHT22;1488;51.548;7.222;2023-09-18T03:47:43;25.00;90.50
2957;DHT22;1488;51.548;7.222;2023-09-18T03:50:10;25.00;90.50
2957;DHT22;1488;51.548;7.222;2023-09-18T03:52:38;25.00;90.50
2957;DHT22;1488;51.548;7.222;2023-09-18T03:55:06;25.00;90.50
2957;DHT22;1488;51.548;7.222;2023-09-18T03:57:33;25.00;90.50
2957;DHT22;1488;51.548;7.222;2023-09-18T04:00:03;25.00;90.50
2957;DHT22;1488;51.548;7.222;2023-09-18T04:02:30;25.00;90.50
2957;DHT22;1488;51.548;7.222;2023-09-18T04:04:57;25.00;90.40
2957;DHT22;1488;51.548;7.222;2023-09-18T04:07:23;25.00;90.40
2957;DHT22;1488;51.548;7.222;2023-09-18T04:09:50;25.00;90.40
2957;DHT22;1488;51.548;7.222;2023-09-18T04:12:17;25.00;90.40
2957;DHT22;1488;51.548;7.222;2023-09-18T04:14:45;25.00;90.40
2957;DHT22;1488;51.548;7.222;2023-09-18T04:17:13;25.00;90.40
2957;DHT22;1488;51.548;7.222;2023-09-18T04:19:40;25.00;90.40
2957;DHT22;1488;51.548;7.222;2023-09-18T04:22:08;25.00;90.40
2957;DHT22;1488;51.548;7.222;2023-09-18T04:24:35;25.00;90.40
2957;DHT22;1488;51.548;7.222;2023-09-18T04:27:02;25.00;90.40
2957;DHT22;1488;51.548;7.222;2023-09-18T04:29:29;25.00;90.40
2957;DHT22;1488;51.548;7.222;2023-09-18T04:31:56;25.00;90.40
2957;DHT22;1488;51.548;7.222;2023-09-18T04:34:24;25.00;90.40
2957;DHT22;1488;51.548;7.222;2023-09-18T04:36:51;25.00;90.40
2957;DHT22;1488;51.548;7.222;2023-09-18T04:39:18;25.00;90.40
2957;DHT22;1488;51.548;7.222;2023-09-18T04:41:46;25.00;90.40
2957;DHT22;1488;51.548;7.222;2023-09-18T04:44:13;25.00;90.40
2957;DHT22;1488;51.548;7.222;2023-09-18T04:46:40;25.00;90.40
2957;DHT22;1488;51.548;7.222;2023-09-18T04:49:08;25.00;90.40
2957;DHT22;1488;51.548;7.222;2023-09-18T04:51:37;25.00;90.40
2957;DHT22;1488;51.548;7.222;2023-09-18T04:54:07;25.00;90.70
2957;DHT22;1488;51.548;7.222;2023-09-18T04:56:34;25.00;90.40
2957;DHT22;1488;51.548;7.222;2023-09-18T04:59:00;25.00;90.40
2957;DHT22;1488;51.548;7.222;2023-09-18T05:01:27;25.00;90.40
2957;DHT22;1488;51.548;7.222;2023-09-18T05:03:55;24.90;90.30
2957;DHT22;1488;51.548;7.222;2023-09-18T05:06:22;25.00;90.30
2957;DHT22;1488;51.548;7.222;2023-09-18T05:08:53;25.00;90.40
2957;DHT22;1488;51.548;7.222;2023-09-18T05:11:21;25.00;90.40
2957;DHT22;1488;51.548;7.222;2023-09-18T05:13:47;25.00;90.40
2957;DHT22;1488;51.548;7.222;2023-09-18T05:16:15;25.00;90.30
2957;DHT22;1488;51.548;7.222;2023-09-18T05:18:42;25.00;90.30
2957;DHT22;1488;51.548;7.222;2023-09-18T05:21:09;24.90;90.30
2957;DHT22;1488;51.548;7.222;2023-09-18T05:23:36;25.00;90.30
2957;DHT22;1488;51.548;7.222;2023-09-18T05:26:04;24.90;90.30
2957;DHT22;1488;51.548;7.222;2023-09-18T05:28:31;24.90;90.30
2957;DHT22;1488;51.548;7.222;2023-09-18T05:30:58;25.00;90.30
2957;DHT22;1488;51.548;7.222;2023-09-18T05:33:25;25.00;90.40
2957;DHT22;1488;51.548;7.222;2023-09-18T05:35:52;24.90;90.30
2957;DHT22;1488;51.548;7.222;2023-09-18T05:38:19;25.00;90.40
2957;DHT22;1488;51.548;7.222;2023-09-18T05:40:46;25.00;90.30
2957;DHT22;1488;51.548;7.222;2023-09-18T05:43:14;25.00;90.30
2957;DHT22;1488;51.548;7.222;2023-09-18T05:45:41;25.00;90.30
2957;DHT22;1488;51.548;7.222;2023-09-18T05:48:08;24.90;90.30
2957;DHT22;1488;51.548;7.222;2023-09-18T05:50:35;24.90;90.30
2957;DHT22;1488;51.548;7.222;2023-09-18T05:53:03;25.00;90.30
2957;DHT22;1488;51.548;7.222;2023-09-18T05:55:30;25.00;90.30
2957;DHT22;1488;51.548;7.222;2023-09-18T05:57:57;25.00;90.30
2957;DHT22;1488;51.548;7.222;2023-09-18T06:00:26;25.00;90.30
2957;DHT22;1488;51.548;7.222;2023-09-18T06:02:52;24.90;90.30
2957;DHT22;1488;51.548;7.222;2023-09-18T06:05:19;24.90;90.30
2957;DHT22;1488;51.548;7.222;2023-09-18T06:07:47;24.90;90.30
2957;DHT22;1488;51.548;7.222;2023-09-18T06:10:15;24.90;90.30
2957;DHT22;1488;51.548;7.222;2023-09-18T06:12:43;25.00;90.30
2957;DHT22;1488;51.548;7.222;2023-09-18T06:15:10;25.00;90.30
2957;DHT22;1488;51.548;7.222;2023-09-18T06:17:40;25.00;90.30
2957;DHT22;1488;51.548;7.222;2023-09-18T06:20:08;25.00;90.30
2957;DHT22;1488;51.548;7.222;2023-09-18T06:22:36;25.00;90.30
2957;DHT22;1488;51.548;7.222;2023-09-18T06:25:04;25.00;90.30
2957;DHT22;1488;51.548;7.222;2023-09-18T06:27:33;25.00;90.30
2957;DHT22;1488;51.548;7.222;2023-09-18T06:30:00;25.00;90.30
2957;DHT22;1488;51.548;7.222;2023-09-18T06:32:27;25.00;90.30
2957;DHT22;1488;51.548;7.222;2023-09-18T06:34:55;25.00;90.30
2957;DHT22;1488;51.548;7.222;2023-09-18T06:37:23;25.00;90.30
2957;DHT22;1488;51.548;7.222;2023-09-18T06:39:50;25.00;90.30
2957;DHT22;1488;51.548;7.222;2023-09-18T06:42:17;25.00;90.30
2957;DHT22;1488;51.548;7.222;2023-09-18T06:44:44;25.00;90.30
2957;DHT22;1488;51.548;7.222;2023-09-18T06:47:11;25.00;90.30
2957;DHT22;1488;51.548;7.222;2023-09-18T06:49:38;25.00;90.30
2957;DHT22;1488;51.548;7.222;2023-09-18T06:52:08;25.00;90.70
2957;DHT22;1488;51.548;7.222;2023-09-18T06:54:35;25.00;90.30
2957;DHT22;1488;51.548;7.222;2023-09-18T06:57:03;25.00;90.30
2957;DHT22;1488;51.548;7.222;2023-09-18T06:59:30;24.90;90.30
2957;DHT22;1488;51.548;7.222;2023-09-18T07:01:59;24.90;90.30
2957;DHT22;1488;51.548;7.222;2023-09-18T07:04:26;25.00;90.30
2957;DHT22;1488;51.548;7.222;2023-09-18T07:06:53;24.90;90.30
2957;DHT22;1488;51.548;7.222;2023-09-18T07:09:21;24.90;90.30
2957;DHT22;1488;51.548;7.222;2023-09-18T07:11:50;25.00;90.30
2957;DHT22;1488;51.548;7.222;2023-09-18T07:14:17;24.90;90.30
2957;DHT22;1488;51.548;7.222;2023-09-18T07:16:44;24.90;90.30
2957;DHT22;1488;51.548;7.222;2023-09-18T07:19:11;25.00;90.30
2957;DHT22;1488;51.548;7.222;2023-09-18T07:21:42;24.90;90.60
2957;DHT22;1488;51.548;7.222;2023-09-18T07:24:09;25.00;90.30
2957;DHT22;1488;51.548;7.222;2023-09-18T07:26:43;25.00;90.30
2957;DHT22;1488;51.548;7.222;2023-09-18T07:29:10;25.00;90.30
2957;DHT22;1488;51.548;7.222;2023-09-18T07:31:38;25.00;90.30
2957;DHT22;1488;51.548;7.222;2023-09-18T07:34:05;25.00;90.30
2957;DHT22;1488;51.548;7.222;2023-09-18T07:36:32;25.00;90.30
2957;DHT22;1488;51.548;7.222;2023-09-18T07:38:59;25.00;90.30
2957;DHT22;1488;51.548;7.222;2023-09-18T07:41:26;25.00;90.30
2957;DHT22;1488;51.548;7.222;2023-09-18T07:43:54;25.00;90.30
2957;DHT22;1488;51.548;7.222;2023-09-18T07:46:22;25.00;90.30
2957;DHT22;1488;51.548;7.222;2023-09-18T07:48:49;25.00;90.30
2957;DHT22;1488;51.548;7.222;2023-09-18T07:51:16;25.00;90.30
2957;DHT22;1488;51.548;7.222;2023-09-18T07:53:43;25.00;90.20
2957;DHT22;1488;51.548;7.222;2023-09-18T07:56:10;25.00;90.20
2957;DHT22;1488;51.548;7.222;2023-09-18T07:58:37;25.00;90.20
2957;DHT22;1488;51.548;7.222;2023-09-18T08:01:06;25.00;90.20
2957;DHT22;1488;51.548;7.222;2023-09-18T08:03:34;25.00;90.20
2957;DHT22;1488;51.548;7.222;2023-09-18T08:06:01;25.00;90.20
2957;DHT22;1488;51.548;7.222;2023-09-18T08:08:30;25.00;90.20
2957;DHT22;1488;51.548;7.222;2023-09-18T08:11:00;25.00;90.20
2957;DHT22;1488;51.548;7.222;2023-09-18T08:13:33;25.00;90.20
2957;DHT22;1488;51.548;7.222;2023-09-18T08:16:00;25.00;90.20
2957;DHT22;1488;51.548;7.222;2023-09-18T08:18:29;25.00;90.20
2957;DHT22;1488;51.548;7.222;2023-09-18T08:20:55;25.00;90.20
2957;DHT22;1488;51.548;7.222;2023-09-18T08:23:24;25.00;90.20
2957;DHT22;1488;51.548;7.222;2023-09-18T08:25:50;25.00;90.20
2957;DHT22;1488;51.548;7.222;2023-09-18T08:28:21;25.00;90.60
2957;DHT22;1488;51.548;7.222;2023-09-18T08:30:48;25.00;90.20
2957;DHT22;1488;51.548;7.222;2023-09-18T08:33:14;25.00;90.20
2957;DHT22;1488;51.548;7.222;2023-09-18T08:35:43;25.00;90.20
2957;DHT22;1488;51.548;7.222;2023-09-18T08:38:09;25.00;90.20
2957;DHT22;1488;51.548;7.222;2023-09-18T08:40:36;25.00;90.20
2957;DHT22;1488;51.548;7.222;2023-09-18T08:43:03;25.00;90.20
2957;DHT22;1488;51.548;7.222;2023-09-18T08:45:35;25.00;90.20
2957;DHT22;1488;51.548;7.222;2023-09-18T08:48:04;25.00;90.20
2957;DHT22;1488;51.548;7.222;2023-09-18T08:50:33;25.00;90.20
2957;DHT22;1488;51.548;7.222;2023-09-18T08:53:01;25.00;90.20
2957;DHT22;1488;51.548;7.222;2023-09-18T08:55:28;25.00;90.20
2957;DHT22;1488;51.548;7.222;2023-09-18T08:57:58;25.00;90.20
2957;DHT22;1488;51.548;7.222;2023-09-18T09:00:25;25.00;90.20
2957;DHT22;1488;51.548;7.222;2023-09-18T09:02:53;25.00;90.10
2957;DHT22;1488;51.548;7.222;2023-09-18T09:05:20;25.00;90.20
2957;DHT22;1488;51.548;7.222;2023-09-18T09:07:48;25.00;90.10
2957;DHT22;1488;51.548;7.222;2023-09-18T09:10:16;25.00;90.10
2957;DHT22;1488;51.548;7.222;2023-09-18T09:12:51;25.00;90.10
2957;DHT22;1488;51.548;7.222;2023-09-18T09:15:19;25.00;90.10
2957;DHT22;1488;51.548;7.222;2023-09-18T09:17:47;25.00;90.10
2957;DHT22;1488;51.548;7.222;2023-09-18T09:20:14;25.00;90.10
2957;DHT22;1488;51.548;7.222;2023-09-18T09:22:44;25.00;90.10
2957;DHT22;1488;51.548;7.222;2023-09-18T09:25:29;25.00;90.50
2957;DHT22;1488;51.548;7.222;2023-09-18T09:27:57;25.00;90.10
2957;DHT22;1488;51.548;7.222;2023-09-18T09:30:26;25.00;90.10
2957;DHT22;1488;51.548;7.222;2023-09-18T09:32:55;25.00;90.10
2957;DHT22;1488;51.548;7.222;2023-09-18T09:35:23;25.00;90.40
2957;DHT22;1488;51.548;7.222;2023-09-18T09:37:53;25.10;90.10
2957;DHT22;1488;51.548;7.222;2023-09-18T09:40:21;25.00;90.10
2957;DHT22;1488;51.548;7.222;2023-09-18T09:42:52;25.10;90.10
2957;DHT22;1488;51.548;7.222;2023-09-18T09:45:26;25.10;90.10
2957;DHT22;1488;51.548;7.222;2023-09-18T09:47:54;25.10;90.50
2957;DHT22;1488;51.548;7.222;2023-09-18T09:50:21;25.00;90.10
2957;DHT22;1488;51.548;7.222;2023-09-18T09:52:52;25.10;90.10
2957;DHT22;1488;51.548;7.222;2023-09-18T09:55:22;25.10;90.10
2957;DHT22;1488;51.548;7.222;2023-09-18T09:57:53;25.10;90.10
2957;DHT22;1488;51.548;7.222;2023-09-18T10:00:23;25.10;90.10
2957;DHT22;1488;51.548;7.222;2023-09-18T10:03:03;25.10;90.10
2957;DHT22;1488;51.548;7.222;2023-09-18T10:05:31;25.10;90.10
2957;DHT22;1488;51.548;7.222;2023-09-18T10:08:03;25.10;90.10
2957;DHT22;1488;51.548;7.222;2023-09-18T10:10:33;25.10;90.10
2957;DHT22;1488;51.548;7.222;2023-09-18T10:13:10;25.10;90.10
2957;DHT22;1488;51.548;7.222;2023-09-18T10:15:39;25.10;90.10
2957;DHT22;1488;51.548;7.222;2023-09-18T10:18:17;25.10;90.10
2957;DHT22;1488;51.548;7.222;2023-09-18T10:20:46;25.10;90.10
2957;DHT22;1488;51.548;7.222;2023-09-18T10:23:23;25.10;90.10
2957;DHT22;1488;51.548;7.222;2023-09-18T10:25:56;25.10;90.10
2957;DHT22;1488;51.548;7.222;2023-09-18T10:28:26;25.10;90.00
2957;DHT22;1488;51.548;7.222;2023-09-18T10:30:57;25.10;90.10
2957;DHT22;1488;51.548;7.222;2023-09-18T10:33:25;25.10;90.00
2957;DHT22;1488;51.548;7.222;2023-09-18T10:35:53;25.10;90.00
2957;DHT22;1488;51.548;7.222;2023-09-18T10:38:21;25.10;90.00
2957;DHT22;1488;51.548;7.222;2023-09-18T10:40:48;25.10;90.00
2957;DHT22;1488;51.548;7.222;2023-09-18T10:43:16;25.10;90.00
2957;DHT22;1488;51.548;7.222;2023-09-18T10:45:45;25.20;90.40
2957;DHT22;1488;51.548;7.222;2023-09-18T10:48:14;25.20;90.00
2957;DHT22;1488;51.548;7.222;2023-09-18T10:50:42;25.20;90.00
2957;DHT22;1488;51.548;7.222;2023-09-18T10:53:11;25.20;90.00
2957;DHT22;1488;51.548;7.222;2023-09-18T10:55:38;25.20;90.00
2957;DHT22;1488;51.548;7.222;2023-09-18T10:58:05;25.20;90.00
2957;DHT22;1488;51.548;7.222;2023-09-18T11:00:32;25.20;90.00
2957;DHT22;1488;51.548;7.222;2023-09-18T11:03:14;25.20;90.00
2957;DHT22;1488;51.548;7.222;2023-09-18T11:05:44;25.30;90.10
2957;DHT22;1488;51.548;7.222;2023-09-18T11:08:30;25.20;90.00
2957;DHT22;1488;51.548;7.222;2023-09-18T11:11:00;25.30;90.10
2957;DHT22;1488;51.548;7.222;2023-09-18T11:13:31;25.20;90.00
2957;DHT22;1488;51.548;7.222;2023-09-18T11:16:15;25.30;90.10
2957;DHT22;1488;51.548;7.222;2023-09-18T11:18:47;25.30;90.10
2957;DHT22;1488;51.548;7.222;2023-09-18T11:21:15;25.30;90.50
2957;DHT22;1488;51.548;7.222;2023-09-18T11:23:43;25.30;90.10
2957;DHT22;1488;51.548;7.222;2023-09-18T11:26:11;25.30;90.10
2957;DHT22;1488;51.548;7.222;2023-09-18T11:28:38;25.30;90.10
2957;DHT22;1488;51.548;7.222;2023-09-18T11:31:05;25.30;90.10
2957;DHT22;1488;51.548;7.222;2023-09-18T11:33:35;25.30;90.10
2957;DHT22;1488;51.548;7.222;2023-09-18T11:36:08;25.30;90.10
2957;DHT22;1488;51.548;7.222;2023-09-18T11:38:53;25.40;90.20
2957;DHT22;1488;51.548;7.222;2023-09-18T11:41:24;25.40;90.10
2957;DHT22;1488;51.548;7.222;2023-09-18T11:43:52;25.40;90.20
2957;DHT22;1488;51.548;7.222;2023-09-18T11:46:19;25.40;90.20
2957;DHT22;1488;51.548;7.222;2023-09-18T11:48:48;25.40;90.10
2957;DHT22;1488;51.548;7.222;2023-09-18T11:51:22;25.40;90.10
2957;DHT22;1488;51.548;7.222;2023-09-18T11:53:54;25.40;90.10
2957;DHT22;1488;51.548;7.222;2023-09-18T11:56:22;25.40;90.20
2957;DHT22;1488;51.548;7.222;2023-09-18T11:58:50;25.40;90.10
2957;DHT22;1488;51.548;7.222;2023-09-18T12:01:18;25.40;90.10
2957;DHT22;1488;51.548;7.222;2023-09-18T12:03:45;25.40;90.10
2957;DHT22;1488;51.548;7.222;2023-09-18T12:06:14;25.40;90.10
2957;DHT22;1488;51.548;7.222;2023-09-18T12:08:42;25.40;90.10
2957;DHT22;1488;51.548;7.222;2023-09-18T12:11:10;25.40;90.10
2957;DHT22;1488;51.548;7.222;2023-09-18T12:13:42;25.40;90.10
2957;DHT22;1488;51.548;7.222;2023-09-18T12:16:09;25.40;90.10
2957;DHT22;1488;51.548;7.222;2023-09-18T12:18:36;25.40;90.20
2957;DHT22;1488;51.548;7.222;2023-09-18T12:21:06;25.40;90.10
2957;DHT22;1488;51.548;7.222;2023-09-18T12:23:37;25.40;90.20
2957;DHT22;1488;51.548;7.222;2023-09-18T12:26:06;25.40;90.20
2957;DHT22;1488;51.548;7.222;2023-09-18T12:28:35;25.40;90.20
2957;DHT22;1488;51.548;7.222;2023-09-18T12:31:02;25.40;90.20
2957;DHT22;1488;51.548;7.222;2023-09-18T12:33:34;25.30;90.20
2957;DHT22;1488;51.548;7.222;2023-09-18T12:36:02;25.40;90.20
2957;DHT22;1488;51.548;7.222;2023-09-18T12:38:30;25.40;90.20
2957;DHT22;1488;51.548;7.222;2023-09-18T12:40:58;25.40;90.20
2957;DHT22;1488;51.548;7.222;2023-09-18T12:43:35;25.40;90.20
2957;DHT22;1488;51.548;7.222;2023-09-18T12:46:04;25.40;90.20
2957;DHT22;1488;51.548;7.222;2023-09-18T12:48:31;25.40;90.20
2957;DHT22;1488;51.548;7.222;2023-09-18T12:51:07;25.40;90.20
2957;DHT22;1488;51.548;7.222;2023-09-18T12:53:34;25.40;90.20
2957;DHT22;1488;51.548;7.222;2023-09-18T12:56:08;25.40;90.20
2957;DHT22;1488;51.548;7.222;2023-09-18T12:58:37;25.40;90.20
2957;DHT22;1488;51.548;7.222;2023-09-18T13:01:06;25.40;90.20
2957;DHT22;1488;51.548;7.222;2023-09-18T13:03:34;25.40;90.20
2957;DHT22;1488;51.548;7.222;2023-09-18T13:06:09;25.40;90.20
2957;DHT22;1488;51.548;7.222;2023-09-18T13:08:37;25.50;90.20
2957;DHT22;1488;51.548;7.222;2023-09-18T13:11:04;25.40;90.20
2957;DHT22;1488;51.548;7.222;2023-09-18T13:13:32;25.40;90.20
2957;DHT22;1488;51.548;7.222;2023-09-18T13:16:04;25.40;90.20
2957;DHT22;1488;51.548;7.222;2023-09-18T13:18:31;25.50;90.60
2957;DHT22;1488;51.548;7.222;2023-09-18T13:20:58;25.50;90.20
2957;DHT22;1488;51.548;7.222;2023-09-18T13:23:29;25.40;90.20
2957;DHT22;1488;51.548;7.222;2023-09-18T13:26:00;25.50;90.60
2957;DHT22;1488;51.548;7.222;2023-09-18T13:28:28;25.50;90.20
2957;DHT22;1488;51.548;7.222;2023-09-18T13:30:58;25.50;90.20
2957;DHT22;1488;51.548;7.222;2023-09-18T13:33:26;25.50;90.20
2957;DHT22;1488;51.548;7.222;2023-09-18T13:35:53;25.50;90.20
2957;DHT22;1488;51.548;7.222;2023-09-18T13:38:21;25.50;90.20
2957;DHT22;1488;51.548;7.222;2023-09-18T13:40:48;25.50;90.20
2957;DHT22;1488;51.548;7.222;2023-09-18T13:43:15;25.50;90.20
2957;DHT22;1488;51.548;7.222;2023-09-18T13:45:44;25.50;90.20
2957;DHT22;1488;51.548;7.222;2023-09-18T13:48:12;25.50;90.20
2957;DHT22;1488;51.548;7.222;2023-09-18T13:50:42;25.50;90.20
2957;DHT22;1488;51.548;7.222;2023-09-18T13:53:08;25.50;90.20
2957;DHT22;1488;51.548;7.222;2023-09-18T13:55:35;25.50;90.20
2957;DHT22;1488;51.548;7.222;2023-09-18T13:58:03;25.50;90.20
2957;DHT22;1488;51.548;7.222;2023-09-18T14:00:30;25.50;90.20
2957;DHT22;1488;51.548;7.222;2023-09-18T14:02:57;25.50;90.20
2957;DHT22;1488;51.548;7.222;2023-09-18T14:05:24;25.50;90.20
2957;DHT22;1488;51.548;7.222;2023-09-18T14:07:53;25.50;90.20
2957;DHT22;1488;51.548;7.222;2023-09-18T14:10:25;25.50;90.20
2957;DHT22;1488;51.548;7.222;2023-09-18T14:12:52;25.50;90.60
2957;DHT22;1488;51.548;7.222;2023-09-18T14:15:19;25.50;90.20
2957;DHT22;1488;51.548;7.222;2023-09-18T14:17:46;25.50;90.20
2957;DHT22;1488;51.548;7.222;2023-09-18T14:20:13;25.50;90.10
2957;DHT22;1488;51.548;7.222;2023-09-18T14:22:43;25.50;90.20
2957;DHT22;1488;51.548;7.222;2023-09-18T14:25:12;25.50;90.10
2957;DHT22;1488;51.548;7.222;2023-09-18T14:27:39;25.50;90.20
2957;DHT22;1488;51.548;7.222;2023-09-18T14:30:07;25.50;90.10
2957;DHT22;1488;51.548;7.222;2023-09-18T14:32:34;25.50;90.10
2957;DHT22;1488;51.548;7.222;2023-09-18T14:35:02;25.50;90.10
2957;DHT22;1488;51.548;7.222;2023-09-18T14:37:30;25.50;90.10
2957;DHT22;1488;51.548;7.222;2023-09-18T14:39:57;25.50;90.10
2957;DHT22;1488;51.548;7.222;2023-09-18T14:42:25;25.50;90.10
2957;DHT22;1488;51.548;7.222;2023-09-18T14:44:52;25.50;90.10
2957;DHT22;1488;51.548;7.222;2023-09-18T14:47:19;25.50;90.10
2957;DHT22;1488;51.548;7.222;2023-09-18T14:49:46;25.50;90.10
2957;DHT22;1488;51.548;7.222;2023-09-18T14:52:14;25.50;90.10
2957;DHT22;1488;51.548;7.222;2023-09-18T14:54:41;25.50;90.10
2957;DHT22;1488;51.548;7.222;2023-09-18T14:57:08;25.50;90.10
2957;DHT22;1488;51.548;7.222;2023-09-18T14:59:37;25.50;90.10
2957;DHT22;1488;51.548;7.222;2023-09-18T15:02:07;25.50;90.10
2957;DHT22;1488;51.548;7.222;2023-09-18T15:04:34;25.50;90.10
2957;DHT22;1488;51.548;7.222;2023-09-18T15:07:02;25.50;90.10
2957;DHT22;1488;51.548;7.222;2023-09-18T15:09:29;25.50;90.10
2957;DHT22;1488;51.548;7.222;2023-09-18T15:11:56;25.50;90.10
2957;DHT22;1488;51.548;7.222;2023-09-18T15:14:23;25.50;90.10
2957;DHT22;1488;51.548;7.222;2023-09-18T15:16:51;25.50;90.10
2957;DHT22;1488;51.548;7.222;2023-09-18T15:19:18;25.50;90.10
2957;DHT22;1488;51.548;7.222;2023-09-18T15:21:45;25.50;90.10
2957;DHT22;1488;51.548;7.222;2023-09-18T15:24:12;25.50;90.10
2957;DHT22;1488;51.548;7.222;2023-09-18T15:26:39;25.50;90.00
2957;DHT22;1488;51.548;7.222;2023-09-18T15:29:05;25.50;90.00
2957;DHT22;1488;51.548;7.222;2023-09-18T15:31:33;25.50;90.00
2957;DHT22;1488;51.548;7.222;2023-09-18T15:34:02;25.50;90.00
2957;DHT22;1488;51.548;7.222;2023-09-18T15:36:28;25.50;90.40
2957;DHT22;1488;51.548;7.222;2023-09-18T15:38:56;25.50;90.00
2957;DHT22;1488;51.548;7.222;2023-09-18T15:41:24;25.50;90.00
2957;DHT22;1488;51.548;7.222;2023-09-18T15:43:51;25.50;90.00
2957;DHT22;1488;51.548;7.222;2023-09-18T15:46:18;25.50;90.00
2957;DHT22;1488;51.548;7.222;2023-09-18T15:48:44;25.50;90.00
2957;DHT22;1488;51.548;7.222;2023-09-18T15:51:13;25.50;90.00
2957;DHT22;1488;51.548;7.222;2023-09-18T15:53:40;25.50;90.00
2957;DHT22;1488;51.548;7.222;2023-09-18T15:56:07;25.50;90.00
2957;DHT22;1488;51.548;7.222;2023-09-18T15:58:33;25.50;90.00
2957;DHT22;1488;51.548;7.222;2023-09-18T16:01:02;25.50;90.00
2957;DHT22;1488;51.548;7.222;2023-09-18T16:03:30;25.50;90.00
2957;DHT22;1488;51.548;7.222;2023-09-18T16:05:57;25.50;90.00
2957;DHT22;1488;51.548;7.222;2023-09-18T16:08:25;25.50;90.00